sensor_id;sensor_type;location;lat;lon;timestamp;temperature;humidity
20231;DHT22;10274;49.022;9.338;2023-09-08T00:02:00;13.70;1.00
20231;DHT22;10274;49.022;9.338;2023-09-08T00:04:26;13.60;1.00
20231;DHT22;10274;49.022;9.338;2023-09-08T00:06:53;13.80;99.90
20231;DHT22;10274;49.022;9.338;2023-09-08T00:09:21;13.80;99.90
20231;DHT22;10274;49.022;9.338;2023-09-08T00:11:48;13.70;1.00
20231;DHT22;10274;49.022;9.338;2023-09-08T00:14:15;13.50;99.90
20231;DHT22;10274;49.022;9.338;2023-09-08T00:16:41;13.60;99.90
20231;DHT22;10274;49.022;9.338;2023-09-08T00:19:09;13.60;99.90
20231;DHT22;10274;49.022;9.338;2023-09-08T00:21:36;13.60;99.90
20231;DHT22;10274;49.022;9.338;2023-09-08T00:24:04;13.70;99.90
20231;DHT22;10274;49.022;9.338;2023-09-08T00:26:32;13.70;1.00
20231;DHT22;10274;49.022;9.338;2023-09-08T00:28:59;13.50;1.00
20231;DHT22;10274;49.022;9.338;2023-09-08T00:31:26;13.30;1.00
20231;DHT22;10274;49.022;9.338;2023-09-08T00:33:53;13.20;99.90
20231;DHT22;10274;49.022;9.338;2023-09-08T00:36:19;13.40;99.90
20231;DHT22;10274;49.022;9.338;2023-09-08T00:38:46;13.50;99.90
20231;DHT22;10274;49.022;9.338;2023-09-08T00:41:13;13.60;99.90
20231;DHT22;10274;49.022;9.338;2023-09-08T00:43:41;13.70;1.00
20231;DHT22;10274;49.022;9.338;2023-09-08T00:46:08;13.70;99.90
20231;DHT22;10274;49.022;9.338;2023-09-08T00:48:37;13.40;99.90
20231;DHT22;10274;49.022;9.338;2023-09-08T00:51:04;13.10;1.00
20231;DHT22;10274;49.022;9.338;2023-09-08T00:53:33;13.30;1.00
20231;DHT22;10274;49.022;9.338;2023-09-08T00:56:00;13.30;99.90
20231;DHT22;10274;49.022;9.338;2023-09-08T00:58:27;13.30;99.90
20231;DHT22;10274;49.022;9.338;2023-09-08T01:00:55;13.20;99.90
20231;DHT22;10274;49.022;9.338;2023-09-08T01:03:23;13.00;99.90
20231;DHT22;10274;49.022;9.338;2023-09-08T01:05:49;13.10;99.90
20231;DHT22;10274;49.022;9.338;2023-09-08T01:08:17;13.00;1.00
20231;DHT22;10274;49.022;9.338;2023-09-08T01:10:45;13.20;1.00
20231;DHT22;10274;49.022;9.338;2023-09-08T01:13:13;13.30;1.00
20231;DHT22;10274;49.022;9.338;2023-09-08T01:15:40;13.40;1.00
20231;DHT22;10274;49.022;9.338;2023-09-08T01:18:08;13.50;1.00
20231;DHT22;10274;49.022;9.338;2023-09-08T01:20:48;13.50;99.90
20231;DHT22;10274;49.022;9.338;2023-09-08T01:23:26;13.60;99.90
20231;DHT22;10274;49.022;9.338;2023-09-08T01:25:59;13.50;1.00
20231;DHT22;10274;49.022;9.338;2023-09-08T01:28:26;13.50;99.90
20231;DHT22;10274;49.022;9.338;2023-09-08T01:30:54;13.40;1.00
20231;DHT22;10274;49.022;9.338;2023-09-08T01:33:22;13.10;1.00
20231;DHT22;10274;49.022;9.338;2023-09-08T01:35:49;13.20;1.00
20231;DHT22;10274;49.022;9.338;2023-09-08T01:38:16;13.40;5.10
20231;DHT22;10274;49.022;9.338;2023-09-08T01:40:43;13.50;1.00
20231;DHT22;10274;49.022;9.338;2023-09-08T01:43:11;13.40;99.90
20231;DHT22;10274;49.022;9.338;2023-09-08T01:45:37;13.20;99.90
20231;DHT22;10274;49.022;9.338;2023-09-08T01:48:05;13.10;53.30
20231;DHT22;10274;49.022;9.338;2023-09-08T01:50:31;13.10;99.90
20231;DHT22;10274;49.022;9.338;2023-09-08T01:52:58;13.10;1.00
20231;DHT22;10274;49.022;9.338;2023-09-08T01:55:25;13.00;1.00
20231;DHT22;10274;49.022;9.338;2023-09-08T01:57:52;12.90;99.90
20231;DHT22;10274;49.022;9.338;2023-09-08T02:00:20;12.80;1.00
20231;DHT22;10274;49.022;9.338;2023-09-08T02:02:46;12.90;1.00
20231;DHT22;10274;49.022;9.338;2023-09-08T02:05:14;12.80;1.00
20231;DHT22;10274;49.022;9.338;2023-09-08T02:07:41;12.80;1.00
20231;DHT22;10274;49.022;9.338;2023-09-08T02:10:08;12.90;1.00
20231;DHT22;10274;49.022;9.338;2023-09-08T02:12:36;13.00;1.00
20231;DHT22;10274;49.022;9.338;2023-09-08T02:15:03;13.10;1.00
20231;DHT22;10274;49.022;9.338;2023-09-08T02:17:31;13.00;1.00
20231;DHT22;10274;49.022;9.338;2023-09-08T02:19:58;12.70;99.90
20231;DHT22;10274;49.022;9.338;2023-09-08T02:22:25;12.70;99.90
20231;DHT22;10274;49.022;9.338;2023-09-08T02:24:52;12.80;1.00
20231;DHT22;10274;49.022;9.338;2023-09-08T02:27:19;12.70;1.00
20231;DHT22;10274;49.022;9.338;2023-09-08T02:29:46;12.60;99.90
20231;DHT22;10274;49.022;9.338;2023-09-08T02:32:12;12.80;1.00
20231;DHT22;10274;49.022;9.338;2023-09-08T02:34:41;12.70;1.00
20231;DHT22;10274;49.022;9.338;2023-09-08T02:37:08;12.50;1.00
20231;DHT22;10274;49.022;9.338;2023-09-08T02:39:35;12.40;1.00
20231;DHT22;10274;49.022;9.338;2023-09-08T02:42:02;12.30;1.00
20231;DHT22;10274;49.022;9.338;2023-09-08T02:44:31;12.40;1.00
20231;DHT22;10274;49.022;9.338;2023-09-08T02:46:58;12.60;1.00
20231;DHT22;10274;49.022;9.338;2023-09-08T02:49:25;12.70;1.00
20231;DHT22;10274;49.022;9.338;2023-09-08T02:51:53;12.80;1.00
20231;DHT22;10274;49.022;9.338;2023-09-08T02:54:19;12.90;1.00
20231;DHT22;10274;49.022;9.338;2023-09-08T02:56:46;12.90;1.00
20231;DHT22;10274;49.022;9.338;2023-09-08T02:59:13;12.70;1.00
20231;DHT22;10274;49.022;9.338;2023-09-08T03:01:39;12.70;99.90
20231;DHT22;10274;49.022;9.338;2023-09-08T03:04:06;12.80;99.90
20231;DHT22;10274;49.022;9.338;2023-09-08T03:06:34;12.40;1.00
20231;DHT22;10274;49.022;9.338;2023-09-08T03:09:02;12.20;1.00
20231;DHT22;10274;49.022;9.338;2023-09-08T03:11:29;12.30;1.00
20231;DHT22;10274;49.022;9.338;2023-09-08T03:13:56;12.40;1.00
20231;DHT22;10274;49.022;9.338;2023-09-08T03:16:22;12.50;1.00
20231;DHT22;10274;49.022;9.338;2023-09-08T03:18:49;12.60;1.00
20231;DHT22;10274;49.022;9.338;2023-09-08T03:21:16;12.70;1.00
20231;DHT22;10274;49.022;9.338;2023-09-08T03:23:44;12.80;1.00
20231;DHT22;10274;49.022;9.338;2023-09-08T03:26:12;12.90;99.90
20231;DHT22;10274;49.022;9.338;2023-09-08T03:28:39;12.90;33.50
20231;DHT22;10274;49.022;9.338;2023-09-08T03:31:06;12.60;99.90
20231;DHT22;10274;49.022;9.338;2023-09-08T03:33:32;12.40;1.00
20231;DHT22;10274;49.022;9.338;2023-09-08T03:35:59;12.30;99.90
20231;DHT22;10274;49.022;9.338;2023-09-08T03:38:26;12.10;1.00
20231;DHT22;10274;49.022;9.338;2023-09-08T03:40:53;12.20;1.00
20231;DHT22;10274;49.022;9.338;2023-09-08T03:43:21;12.30;1.00
20231;DHT22;10274;49.022;9.338;2023-09-08T03:45:48;12.40;1.00
20231;DHT22;10274;49.022;9.338;2023-09-08T03:48:14;12.20;1.00
20231;DHT22;10274;49.022;9.338;2023-09-08T03:50:41;12.10;1.00
20231;DHT22;10274;49.022;9.338;2023-09-08T03:53:11;12.00;1.00
20231;DHT22;10274;49.022;9.338;2023-09-08T03:55:37;12.00;1.00
20231;DHT22;10274;49.022;9.338;2023-09-08T03:58:04;12.10;1.00
20231;DHT22;10274;49.022;9.338;2023-09-08T04:00:32;12.20;1.00
20231;DHT22;10274;49.022;9.338;2023-09-08T04:02:59;12.30;1.00
20231;DHT22;10274;49.022;9.338;2023-09-08T04:05:26;12.40;1.00
20231;DHT22;10274;49.022;9.338;2023-09-08T04:07:53;12.40;1.00
20231;DHT22;10274;49.022;9.338;2023-09-08T04:10:19;12.40;1.00
20231;DHT22;10274;49.022;9.338;2023-09-08T04:12:46;12.20;1.00
20231;DHT22;10274;49.022;9.338;2023-09-08T04:15:13;12.10;1.00
20231;DHT22;10274;49.022;9.338;2023-09-08T04:17:41;12.00;1.00
20231;DHT22;10274;49.022;9.338;2023-09-08T04:20:08;11.90;1.00
20231;DHT22;10274;49.022;9.338;2023-09-08T04:22:35;11.80;1.00
20231;DHT22;10274;49.022;9.338;2023-09-08T04:25:02;11.90;1.00
20231;DHT22;10274;49.022;9.338;2023-09-08T04:27:31;12.10;1.00
20231;DHT22;10274;49.022;9.338;2023-09-08T04:29:57;11.90;1.00
20231;DHT22;10274;49.022;9.338;2023-09-08T04:32:24;11.70;1.00
20231;DHT22;10274;49.022;9.338;2023-09-08T04:34:52;11.80;1.00
20231;DHT22;10274;49.022;9.338;2023-09-08T04:37:19;12.00;1.00
20231;DHT22;10274;49.022;9.338;2023-09-08T04:39:46;12.10;1.00
20231;DHT22;10274;49.022;9.338;2023-09-08T04:42:13;12.20;1.00
20231;DHT22;10274;49.022;9.338;2023-09-08T04:44:40;12.30;1.00
20231;DHT22;10274;49.022;9.338;2023-09-08T04:47:06;12.40;1.00
20231;DHT22;10274;49.022;9.338;2023-09-08T04:49:33;12.30;1.00
20231;DHT22;10274;49.022;9.338;2023-09-08T04:52:01;12.10;1.00
20231;DHT22;10274;49.022;9.338;2023-09-08T04:54:28;12.10;1.00
20231;DHT22;10274;49.022;9.338;2023-09-08T04:56:55;12.20;1.00
20231;DHT22;10274;49.022;9.338;2023-09-08T04:59:22;12.20;99.90
20231;DHT22;10274;49.022;9.338;2023-09-08T05:01:49;12.10;1.00
20231;DHT22;10274;49.022;9.338;2023-09-08T05:04:17;12.00;1.00
20231;DHT22;10274;49.022;9.338;2023-09-08T05:06:44;11.80;1.00
20231;DHT22;10274;49.022;9.338;2023-09-08T05:09:12;11.80;1.00
20231;DHT22;10274;49.022;9.338;2023-09-08T05:11:39;11.80;1.00
20231;DHT22;10274;49.022;9.338;2023-09-08T05:14:05;11.90;1.00
20231;DHT22;10274;49.022;9.338;2023-09-08T05:16:32;11.70;1.00
20231;DHT22;10274;49.022;9.338;2023-09-08T05:19:12;11.60;1.00
20231;DHT22;10274;49.022;9.338;2023-09-08T05:21:39;11.70;1.00
20231;DHT22;10274;49.022;9.338;2023-09-08T05:24:07;11.60;1.00
20231;DHT22;10274;49.022;9.338;2023-09-08T05:26:37;11.70;1.00
20231;DHT22;10274;49.022;9.338;2023-09-08T05:29:04;11.80;1.00
20231;DHT22;10274;49.022;9.338;2023-09-08T05:31:31;11.90;1.00
20231;DHT22;10274;49.022;9.338;2023-09-08T05:33:57;12.00;1.00
20231;DHT22;10274;49.022;9.338;2023-09-08T05:36:24;11.90;1.00
20231;DHT22;10274;49.022;9.338;2023-09-08T05:38:51;11.80;1.00
20231;DHT22;10274;49.022;9.338;2023-09-08T05:41:18;11.70;1.00
20231;DHT22;10274;49.022;9.338;2023-09-08T05:43:46;11.70;1.00
20231;DHT22;10274;49.022;9.338;2023-09-08T05:46:12;11.60;1.00
20231;DHT22;10274;49.022;9.338;2023-09-08T05:48:39;11.80;1.00
20231;DHT22;10274;49.022;9.338;2023-09-08T05:51:06;12.00;1.00
20231;DHT22;10274;49.022;9.338;2023-09-08T05:53:33;12.10;1.00
20231;DHT22;10274;49.022;9.338;2023-09-08T05:56:01;12.30;1.00
20231;DHT22;10274;49.022;9.338;2023-09-08T05:58:27;12.40;1.00
20231;DHT22;10274;49.022;9.338;2023-09-08T06:00:56;12.50;1.00
20231;DHT22;10274;49.022;9.338;2023-09-08T06:03:23;12.60;1.00
20231;DHT22;10274;49.022;9.338;2023-09-08T06:05:49;12.60;1.00
20231;DHT22;10274;49.022;9.338;2023-09-08T06:08:16;12.70;1.00
20231;DHT22;10274;49.022;9.338;2023-09-08T06:10:43;12.80;1.00
20231;DHT22;10274;49.022;9.338;2023-09-08T06:13:09;12.80;1.00
20231;DHT22;10274;49.022;9.338;2023-09-08T06:15:36;12.70;1.00
20231;DHT22;10274;49.022;9.338;2023-09-08T06:18:05;12.70;1.00
20231;DHT22;10274;49.022;9.338;2023-09-08T06:20:32;12.90;1.00
20231;DHT22;10274;49.022;9.338;2023-09-08T06:22:58;13.10;1.00
20231;DHT22;10274;49.022;9.338;2023-09-08T06:25:26;13.50;1.00
20231;DHT22;10274;49.022;9.338;2023-09-08T06:27:54;13.90;1.00
20231;DHT22;10274;49.022;9.338;2023-09-08T06:30:20;14.10;1.00
20231;DHT22;10274;49.022;9.338;2023-09-08T06:32:47;14.40;1.00
20231;DHT22;10274;49.022;9.338;2023-09-08T06:35:15;14.60;1.00
20231;DHT22;10274;49.022;9.338;2023-09-08T06:37:42;14.80;1.00
20231;DHT22;10274;49.022;9.338;2023-09-08T06:40:09;14.80;1.00
20231;DHT22;10274;49.022;9.338;2023-09-08T06:42:36;15.10;1.00
20231;DHT22;10274;49.022;9.338;2023-09-08T06:45:03;15.40;1.00
20231;DHT22;10274;49.022;9.338;2023-09-08T06:47:30;15.50;99.90
20231;DHT22;10274;49.022;9.338;2023-09-08T06:49:56;15.70;99.90
20231;DHT22;10274;49.022;9.338;2023-09-08T06:52:24;15.90;1.00
20231;DHT22;10274;49.022;9.338;2023-09-08T06:54:51;16.10;99.90
20231;DHT22;10274;49.022;9.338;2023-09-08T06:57:18;16.40;58.50
20231;DHT22;10274;49.022;9.338;2023-09-08T06:59:46;16.70;99.90
20231;DHT22;10274;49.022;9.338;2023-09-08T07:02:13;16.80;99.90
20231;DHT22;10274;49.022;9.338;2023-09-08T07:04:39;17.00;1.00
20231;DHT22;10274;49.022;9.338;2023-09-08T07:07:06;17.10;99.90
20231;DHT22;10274;49.022;9.338;2023-09-08T07:09:35;17.30;1.00
20231;DHT22;10274;49.022;9.338;2023-09-08T07:12:02;17.30;99.90
20231;DHT22;10274;49.022;9.338;2023-09-08T07:14:29;17.60;1.00
20231;DHT22;10274;49.022;9.338;2023-09-08T07:16:56;18.00;1.00
20231;DHT22;10274;49.022;9.338;2023-09-08T07:19:23;18.10;99.90
20231;DHT22;10274;49.022;9.338;2023-09-08T07:21:50;18.40;65.50
20231;DHT22;10274;49.022;9.338;2023-09-08T07:24:16;18.70;1.00
20231;DHT22;10274;49.022;9.338;2023-09-08T07:26:44;19.00;1.00
20231;DHT22;10274;49.022;9.338;2023-09-08T07:29:11;19.00;99.90
20231;DHT22;10274;49.022;9.338;2023-09-08T07:31:38;19.10;1.00
20231;DHT22;10274;49.022;9.338;2023-09-08T07:34:05;19.30;1.00
20231;DHT22;10274;49.022;9.338;2023-09-08T07:36:32;19.50;1.00
20231;DHT22;10274;49.022;9.338;2023-09-08T07:38:59;19.70;1.00
20231;DHT22;10274;49.022;9.338;2023-09-08T07:41:25;19.90;99.90
20231;DHT22;10274;49.022;9.338;2023-09-08T07:43:53;20.00;99.90
20231;DHT22;10274;49.022;9.338;2023-09-08T07:46:20;20.10;4.50
20231;DHT22;10274;49.022;9.338;2023-09-08T07:48:47;20.30;1.00
20231;DHT22;10274;49.022;9.338;2023-09-08T07:51:14;20.50;1.00
20231;DHT22;10274;49.022;9.338;2023-09-08T07:53:41;20.60;1.00
20231;DHT22;10274;49.022;9.338;2023-09-08T07:56:07;21.00;1.00
20231;DHT22;10274;49.022;9.338;2023-09-08T07:58:34;21.30;1.00
20231;DHT22;10274;49.022;9.338;2023-09-08T08:01:02;21.40;1.00
20231;DHT22;10274;49.022;9.338;2023-09-08T08:03:29;21.60;99.90
20231;DHT22;10274;49.022;9.338;2023-09-08T08:05:56;21.90;99.90
20231;DHT22;10274;49.022;9.338;2023-09-08T08:08:23;22.10;99.90
20231;DHT22;10274;49.022;9.338;2023-09-08T08:10:50;22.40;99.90
20231;DHT22;10274;49.022;9.338;2023-09-08T08:13:17;22.40;99.90
20231;DHT22;10274;49.022;9.338;2023-09-08T08:15:44;22.70;99.90
20231;DHT22;10274;49.022;9.338;2023-09-08T08:18:14;23.10;57.50
20231;DHT22;10274;49.022;9.338;2023-09-08T08:23:08;23.60;1.00
20231;DHT22;10274;49.022;9.338;2023-09-08T08:25:35;23.80;1.00
20231;DHT22;10274;49.022;9.338;2023-09-08T08:28:01;24.00;1.00
20231;DHT22;10274;49.022;9.338;2023-09-08T08:30:28;24.30;1.00
20231;DHT22;10274;49.022;9.338;2023-09-08T08:32:55;24.50;1.00
20231;DHT22;10274;49.022;9.338;2023-09-08T08:35:23;24.80;1.00
20231;DHT22;10274;49.022;9.338;2023-09-08T08:37:50;25.70;1.00
20231;DHT22;10274;49.022;9.338;2023-09-08T08:40:17;25.90;1.00
20231;DHT22;10274;49.022;9.338;2023-09-08T08:42:44;26.30;1.00
20231;DHT22;10274;49.022;9.338;2023-09-08T08:45:11;26.10;1.00
20231;DHT22;10274;49.022;9.338;2023-09-08T08:47:39;26.40;1.00
20231;DHT22;10274;49.022;9.338;2023-09-08T08:50:08;26.90;1.00
20231;DHT22;10274;49.022;9.338;2023-09-08T08:52:38;27.10;1.00
20231;DHT22;10274;49.022;9.338;2023-09-08T08:55:06;27.40;1.00
20231;DHT22;10274;49.022;9.338;2023-09-08T08:57:34;27.90;1.00
20231;DHT22;10274;49.022;9.338;2023-09-08T09:00:03;28.00;1.00
20231;DHT22;10274;49.022;9.338;2023-09-08T09:02:31;27.80;1.00
20231;DHT22;10274;49.022;9.338;2023-09-08T09:04:59;28.30;1.00
20231;DHT22;10274;49.022;9.338;2023-09-08T09:07:26;28.70;1.00
20231;DHT22;10274;49.022;9.338;2023-09-08T09:09:55;28.90;1.00
20231;DHT22;10274;49.022;9.338;2023-09-08T09:12:22;28.70;1.00
20231;DHT22;10274;49.022;9.338;2023-09-08T09:14:53;29.00;1.00
20231;DHT22;10274;49.022;9.338;2023-09-08T09:17:20;29.80;1.00
20231;DHT22;10274;49.022;9.338;2023-09-08T09:19:47;29.30;1.00
20231;DHT22;10274;49.022;9.338;2023-09-08T09:22:14;29.70;1.00
20231;DHT22;10274;49.022;9.338;2023-09-08T09:24:46;29.50;1.00
20231;DHT22;10274;49.022;9.338;2023-09-08T09:27:14;29.70;1.00
20231;DHT22;10274;49.022;9.338;2023-09-08T09:29:44;29.50;1.00
20231;DHT22;10274;49.022;9.338;2023-09-08T09:32:13;30.40;99.90
20231;DHT22;10274;49.022;9.338;2023-09-08T09:34:48;30.00;99.90
20231;DHT22;10274;49.022;9.338;2023-09-08T09:37:16;30.30;99.90
20231;DHT22;10274;49.022;9.338;2023-09-08T09:39:48;30.50;99.90
20231;DHT22;10274;49.022;9.338;2023-09-08T09:42:17;30.60;99.90
20231;DHT22;10274;49.022;9.338;2023-09-08T09:44:46;29.90;99.90
20231;DHT22;10274;49.022;9.338;2023-09-08T09:47:14;30.10;99.90
20231;DHT22;10274;49.022;9.338;2023-09-08T09:49:42;30.50;99.90
20231;DHT22;10274;49.022;9.338;2023-09-08T09:52:11;30.40;99.90
20231;DHT22;10274;49.022;9.338;2023-09-08T09:54:39;30.90;99.90
20231;DHT22;10274;49.022;9.338;2023-09-08T09:57:06;30.60;99.90
20231;DHT22;10274;49.022;9.338;2023-09-08T09:59:35;30.80;99.90
20231;DHT22;10274;49.022;9.338;2023-09-08T10:02:03;31.60;99.90
20231;DHT22;10274;49.022;9.338;2023-09-08T10:04:30;32.20;99.90
20231;DHT22;10274;49.022;9.338;2023-09-08T10:06:57;31.40;99.90
20231;DHT22;10274;49.022;9.338;2023-09-08T10:09:24;31.10;99.90
20231;DHT22;10274;49.022;9.338;2023-09-08T10:11:54;30.40;99.90
20231;DHT22;10274;49.022;9.338;2023-09-08T10:14:25;30.90;99.90
20231;DHT22;10274;49.022;9.338;2023-09-08T10:16:59;30.60;99.90
20231;DHT22;10274;49.022;9.338;2023-09-08T10:19:26;30.50;99.90
20231;DHT22;10274;49.022;9.338;2023-09-08T10:21:57;31.10;99.90
20231;DHT22;10274;49.022;9.338;2023-09-08T10:24:27;30.80;99.90
20231;DHT22;10274;49.022;9.338;2023-09-08T10:26:58;29.80;99.90
20231;DHT22;10274;49.022;9.338;2023-09-08T10:29:27;30.90;99.90
20231;DHT22;10274;49.022;9.338;2023-09-08T10:31:55;30.10;99.90
20231;DHT22;10274;49.022;9.338;2023-09-08T10:34:23;30.00;99.90
20231;DHT22;10274;49.022;9.338;2023-09-08T10:36:51;30.10;99.90
20231;DHT22;10274;49.022;9.338;2023-09-08T10:39:31;30.50;99.90
20231;DHT22;10274;49.022;9.338;2023-09-08T10:42:23;30.70;99.90
20231;DHT22;10274;49.022;9.338;2023-09-08T10:45:02;30.80;99.90
20231;DHT22;10274;49.022;9.338;2023-09-08T10:47:39;29.90;99.90
20231;DHT22;10274;49.022;9.338;2023-09-08T10:50:15;29.70;99.90
20231;DHT22;10274;49.022;9.338;2023-09-08T10:52:42;29.50;99.90
20231;DHT22;10274;49.022;9.338;2023-09-08T10:55:11;29.60;99.90
20231;DHT22;10274;49.022;9.338;2023-09-08T10:57:38;30.30;99.90
20231;DHT22;10274;49.022;9.338;2023-09-08T11:00:11;29.60;99.90
20231;DHT22;10274;49.022;9.338;2023-09-08T11:02:49;29.70;99.90
20231;DHT22;10274;49.022;9.338;2023-09-08T11:05:16;29.50;99.90
20231;DHT22;10274;49.022;9.338;2023-09-08T11:07:45;29.40;99.90
20231;DHT22;10274;49.022;9.338;2023-09-08T11:10:14;29.50;99.90
20231;DHT22;10274;49.022;9.338;2023-09-08T11:12:41;29.50;99.90
20231;DHT22;10274;49.022;9.338;2023-09-08T11:15:09;30.10;99.90
20231;DHT22;10274;49.022;9.338;2023-09-08T11:17:37;30.30;99.90
20231;DHT22;10274;49.022;9.338;2023-09-08T11:20:07;30.50;99.90
20231;DHT22;10274;49.022;9.338;2023-09-08T11:22:35;30.50;99.90
20231;DHT22;10274;49.022;9.338;2023-09-08T11:25:02;30.60;99.90
20231;DHT22;10274;49.022;9.338;2023-09-08T11:27:30;30.80;99.90
20231;DHT22;10274;49.022;9.338;2023-09-08T11:29:57;30.60;99.90
20231;DHT22;10274;49.022;9.338;2023-09-08T11:32:24;30.00;99.90
20231;DHT22;10274;49.022;9.338;2023-09-08T11:34:52;30.20;99.90
20231;DHT22;10274;49.022;9.338;2023-09-08T11:37:20;29.20;99.90
20231;DHT22;10274;49.022;9.338;2023-09-08T11:39:47;29.80;99.90
20231;DHT22;10274;49.022;9.338;2023-09-08T11:42:15;30.00;99.90
20231;DHT22;10274;49.022;9.338;2023-09-08T11:44:42;29.70;99.90
20231;DHT22;10274;49.022;9.338;2023-09-08T11:47:10;29.40;99.90
20231;DHT22;10274;49.022;9.338;2023-09-08T11:49:37;29.40;99.90
20231;DHT22;10274;49.022;9.338;2023-09-08T11:52:05;29.40;99.90
20231;DHT22;10274;49.022;9.338;2023-09-08T11:54:34;29.60;99.90
20231;DHT22;10274;49.022;9.338;2023-09-08T11:57:03;29.50;99.90
20231;DHT22;10274;49.022;9.338;2023-09-08T11:59:32;29.40;99.90
20231;DHT22;10274;49.022;9.338;2023-09-08T12:01:59;29.50;99.90
20231;DHT22;10274;49.022;9.338;2023-09-08T12:04:26;29.60;99.90
20231;DHT22;10274;49.022;9.338;2023-09-08T12:06:54;29.60;99.90
20231;DHT22;10274;49.022;9.338;2023-09-08T12:09:22;29.90;99.90
20231;DHT22;10274;49.022;9.338;2023-09-08T12:11:50;29.90;99.90
20231;DHT22;10274;49.022;9.338;2023-09-08T12:14:17;29.80;99.90
20231;DHT22;10274;49.022;9.338;2023-09-08T12:16:44;29.60;99.90
20231;DHT22;10274;49.022;9.338;2023-09-08T12:19:29;29.80;99.90
20231;DHT22;10274;49.022;9.338;2023-09-08T12:21:58;29.80;99.90
20231;DHT22;10274;49.022;9.338;2023-09-08T12:24:48;29.60;99.90
20231;DHT22;10274;49.022;9.338;2023-09-08T12:27:17;29.30;99.90
20231;DHT22;10274;49.022;9.338;2023-09-08T12:29:58;29.20;99.90
20231;DHT22;10274;49.022;9.338;2023-09-08T12:32:26;29.70;99.90
20231;DHT22;10274;49.022;9.338;2023-09-08T12:34:55;29.70;99.90
20231;DHT22;10274;49.022;9.338;2023-09-08T12:37:22;29.50;99.90
20231;DHT22;10274;49.022;9.338;2023-09-08T12:39:50;29.80;99.90
20231;DHT22;10274;49.022;9.338;2023-09-08T12:42:18;29.80;99.90
20231;DHT22;10274;49.022;9.338;2023-09-08T12:44:46;29.50;99.90
20231;DHT22;10274;49.022;9.338;2023-09-08T12:47:12;29.70;99.90
20231;DHT22;10274;49.022;9.338;2023-09-08T12:49:40;29.40;99.90
20231;DHT22;10274;49.022;9.338;2023-09-08T12:52:06;29.70;99.90
20231;DHT22;10274;49.022;9.338;2023-09-08T12:54:34;29.60;99.90
20231;DHT22;10274;49.022;9.338;2023-09-08T12:57:01;29.80;99.90
20231;DHT22;10274;49.022;9.338;2023-09-08T12:59:29;29.80;99.90
20231;DHT22;10274;49.022;9.338;2023-09-08T13:01:56;30.00;99.90
20231;DHT22;10274;49.022;9.338;2023-09-08T13:04:23;30.00;99.90
20231;DHT22;10274;49.022;9.338;2023-09-08T13:06:50;30.00;99.90
20231;DHT22;10274;49.022;9.338;2023-09-08T13:09:17;30.00;99.90
20231;DHT22;10274;49.022;9.338;2023-09-08T13:11:44;30.20;99.90
20231;DHT22;10274;49.022;9.338;2023-09-08T13:14:11;29.80;99.90
20231;DHT22;10274;49.022;9.338;2023-09-08T13:16:39;29.90;99.90
20231;DHT22;10274;49.022;9.338;2023-09-08T13:19:06;30.00;99.90
20231;DHT22;10274;49.022;9.338;2023-09-08T13:21:32;30.30;99.90
20231;DHT22;10274;49.022;9.338;2023-09-08T13:23:59;30.40;99.90
20231;DHT22;10274;49.022;9.338;2023-09-08T13:26:26;30.30;99.90
20231;DHT22;10274;49.022;9.338;2023-09-08T13:28:53;30.60;99.90
20231;DHT22;10274;49.022;9.338;2023-09-08T13:31:19;30.50;99.90
20231;DHT22;10274;49.022;9.338;2023-09-08T13:33:48;30.60;99.90
20231;DHT22;10274;49.022;9.338;2023-09-08T13:36:14;30.10;99.90
20231;DHT22;10274;49.022;9.338;2023-09-08T13:38:41;30.00;99.90
20231;DHT22;10274;49.022;9.338;2023-09-08T13:41:08;29.80;99.90
20231;DHT22;10274;49.022;9.338;2023-09-08T13:43:34;29.70;99.90
20231;DHT22;10274;49.022;9.338;2023-09-08T13:46:01;30.20;99.90
20231;DHT22;10274;49.022;9.338;2023-09-08T13:48:28;30.40;99.90
20231;DHT22;10274;49.022;9.338;2023-09-08T13:51:01;30.50;99.90
20231;DHT22;10274;49.022;9.338;2023-09-08T13:53:28;31.10;99.90
20231;DHT22;10274;49.022;9.338;2023-09-08T13:55:54;30.70;99.90
20231;DHT22;10274;49.022;9.338;2023-09-08T13:58:21;30.80;99.90
20231;DHT22;10274;49.022;9.338;2023-09-08T14:00:48;31.10;99.90
20231;DHT22;10274;49.022;9.338;2023-09-08T14:03:16;31.20;99.90
20231;DHT22;10274;49.022;9.338;2023-09-08T14:05:43;30.90;99.90
20231;DHT22;10274;49.022;9.338;2023-09-08T14:08:11;30.80;99.90
20231;DHT22;10274;49.022;9.338;2023-09-08T14:10:38;31.10;99.90
20231;DHT22;10274;49.022;9.338;2023-09-08T14:13:04;31.20;99.90
20231;DHT22;10274;49.022;9.338;2023-09-08T14:15:31;31.50;99.90
20231;DHT22;10274;49.022;9.338;2023-09-08T14:17:58;31.50;99.90
20231;DHT22;10274;49.022;9.338;2023-09-08T14:20:25;31.20;99.90
20231;DHT22;10274;49.022;9.338;2023-09-08T14:22:51;30.90;99.90
20231;DHT22;10274;49.022;9.338;2023-09-08T14:25:20;30.70;99.90
20231;DHT22;10274;49.022;9.338;2023-09-08T14:27:46;30.60;99.90
20231;DHT22;10274;49.022;9.338;2023-09-08T14:30:13;30.60;99.90
20231;DHT22;10274;49.022;9.338;2023-09-08T14:32:40;30.60;99.90
20231;DHT22;10274;49.022;9.338;2023-09-08T14:35:07;30.40;99.90
20231;DHT22;10274;49.022;9.338;2023-09-08T14:37:34;30.50;99.90
20231;DHT22;10274;49.022;9.338;2023-09-08T14:40:00;30.40;99.90
20231;DHT22;10274;49.022;9.338;2023-09-08T14:42:29;30.30;99.90
20231;DHT22;10274;49.022;9.338;2023-09-08T14:44:56;30.50;99.90
20231;DHT22;10274;49.022;9.338;2023-09-08T14:47:22;30.10;99.90
20231;DHT22;10274;49.022;9.338;2023-09-08T14:49:49;29.90;99.90
20231;DHT22;10274;49.022;9.338;2023-09-08T14:52:16;29.80;99.90
20231;DHT22;10274;49.022;9.338;2023-09-08T14:54:45;29.80;99.90
20231;DHT22;10274;49.022;9.338;2023-09-08T14:57:12;29.80;99.90
20231;DHT22;10274;49.022;9.338;2023-09-08T14:59:40;29.90;99.90
20231;DHT22;10274;49.022;9.338;2023-09-08T15:02:08;30.00;99.90
20231;DHT22;10274;49.022;9.338;2023-09-08T15:04:35;30.00;99.90
20231;DHT22;10274;49.022;9.338;2023-09-08T15:07:02;29.80;99.90
20231;DHT22;10274;49.022;9.338;2023-09-08T15:09:29;29.80;99.90
20231;DHT22;10274;49.022;9.338;2023-09-08T15:11:56;29.90;99.90
20231;DHT22;10274;49.022;9.338;2023-09-08T15:14:23;29.80;99.90
20231;DHT22;10274;49.022;9.338;2023-09-08T15:16:51;29.90;99.90
20231;DHT22;10274;49.022;9.338;2023-09-08T15:19:17;29.70;99.90
20231;DHT22;10274;49.022;9.338;2023-09-08T15:21:44;29.50;99.90
20231;DHT22;10274;49.022;9.338;2023-09-08T15:24:11;29.40;99.90
20231;DHT22;10274;49.022;9.338;2023-09-08T15:26:38;29.50;99.90
20231;DHT22;10274;49.022;9.338;2023-09-08T15:29:05;29.60;99.90
20231;DHT22;10274;49.022;9.338;2023-09-08T15:31:31;29.70;99.90
20231;DHT22;10274;49.022;9.338;2023-09-08T15:34:00;29.70;99.90
20231;DHT22;10274;49.022;9.338;2023-09-08T15:36:26;29.80;99.90
20231;DHT22;10274;49.022;9.338;2023-09-08T15:38:53;29.80;99.90
20231;DHT22;10274;49.022;9.338;2023-09-08T15:41:20;29.60;99.90
20231;DHT22;10274;49.022;9.338;2023-09-08T15:43:48;29.40;99.90